Historyczne dane pomiarowe

Dodano dane terminowe – wersja testowa.

Dane z okresu 1951-2019

Wersja bazy: 1.34 [2019-03-16, lista zmian], aktualizacja planowana na 2019-04-15

Dane meteo z obszaru Polski uzyskane na podstawie danych udostępnionych przez Instytut Meteorologii i Gospodarki Wodnej – Państwowy Instytut Badawczy.

 

Wybierz Datę:    

       

TemperaturaWilgotnośćWiatrCiśnienieOpadyŚniegCzas trwania zjawisk
 Stacja t tx tn tng RH VA  wxwx mslp ppp RRR   cm mm wxwxwxwxwxwxwx
2010-02-25 2.5 7.2 0.0--- 4.0----- 0.0-- 11---------
2010-02-26 0.2 7.4 -6.7--- 6.3----- 1.1-- 8---------
2010-02-27 3.7 6.0 2.4--- 7.3----- 0.0-- 6---------
2010-02-28 3.7 8.5 -3.0--- 3.0----- 0.1-- 2---------
2010-03-01 5.4 9.0 3.7--- 7.0----- 0.0------------
2010-03-02 0.9 4.8 -1.0--- 6.3----- 0.0------------
2010-03-03 -0.3 3.3 -1.7--- 4.0----- 0.3------------
2010-03-04 -2.5 2.3 -5.7--- 2.7----- 0.0-- 1---------
2010-03-05 -5.1 -1.2 -8.0--- 7.0----- 0.3------------
2010-03-06 -4.7 -2.2 -6.8--- 8.0----- 0.2-- 1---------
2010-03-07 -6.3 -1.7-11.3--- 6.0----- 0.0-- 1---------
2010-03-08 -7.6 -2.5-12.3--- 3.0----- 0.0------------
2010-03-09 -8.4 -1.5-14.0--- 3.3----- 0.0------------
2010-03-10 -5.9 0.7-12.7--- 4.0----- 0.0------------
2010-03-11 -4.3 -1.3 -6.4--- 7.3----- 1.0------------
2010-03-12 -2.8 -1.2 -3.9--- 7.0----- 0.0-- 1---------
2010-03-13 0.0 2.5 -3.2--- 8.0----- 3.9-- 1---------
2010-03-14 0.7 2.2 -0.2--- 8.0----- 5.5-- 3---------
2010-03-15 -2.7 0.3 -4.5--- 5.7----- 2.2-- 8---------
2010-03-16 -3.1 -0.2 -4.8--- 5.0----- 0.0-- 7---------
2010-03-17 -1.6 3.2 -7.2--- 2.7----- 0.0-- 4---------
2010-03-18 4.1 9.7 0.9--- 4.3----- 0.0------------
2010-03-19 6.6 13.3 0.8--- 4.0----- 0.0------------
2010-03-20 7.6 17.3 -4.6--- 5.7----- 1.9------------
2010-03-21 11.1 16.9 7.3--- 6.3----- 1.3------------
2010-03-22 6.5 12.3 3.9--- 6.0----- 0.0------------
2010-03-23 5.1 15.2 -3.1--- 3.7----- 0.0------------
2010-03-24 6.7 14.4 0.9--- 2.7----- 0.0------------
2010-03-25 10.1 18.7 1.7--- 3.0----- 0.0------------
2010-03-26 15.3 20.4 11.9--- 4.3----- 0.0------------
161.4 ms

 

Źródłem pochodzenia danych jest Instytut Meteorologii i Gospodarki Wodnej – Państwowy Instytut Badawczy. Dane Instytutu Meteorologii i Gospodarki Wodnej – Państwowego Instytutu Badawczego zostały przetworzone.

Dane źródłowe można odnaleźć na stronie https://dane.imgw.pl